PWSweather.com
Personal Weather Stations
Station Observations
IHTIMAN1
Neighbourhood 1, IhtimanBG 2050

Neighbourhood 1IhtimanBG 2050

Lat: 42.436852, Lon: 23.817921

Elevation: 2066

Station Type: Oregon Scientific WMR968

http://ihtiman-meteo.com

High Low Average
Temperature 63.5°F17.5°C 33.3°F0.7°C 48.5°F9.2°C
Dew Point 50.1°F10.1°C 30.6°F-0.8°C 40.5°F4.7°C
Winds 6.9 mph 11.1 kmh Calm Calm 1.0 mph SW1.6 kmh SW
Wind Gusts 11.5 mph18.5 kmh -- 2.0 mph3.2 kmh
Humidity 98% 43% 77%
Pressure 30.06 in1017.9 mb 29.82 in1009.8 mb -
Precipitation 0.05 in1.3 mm - -
Hour Temp Dew Point Humidity Winds Wind Gusts Pressure Precip Precip Rate Daily Precip Total
12:00 AM 38.8°F3.8°C 30.6°F-0.8°C 72% Calm Calm -- 30.06 in1017.9 mb - 0.00 in0.0 mm 0.00 in0.0 mm
12:10 AM 38.5°F3.6°C 30.6°F-0.8°C 73% Calm Calm -- 30.06 in1017.9 mb - 0.00 in0.0 mm 0.00 in0.0 mm
12:20 AM 38.2°F3.4°C 30.9°F-0.6°C 75% Calm Calm -- 30.03 in1016.9 mb - 0.00 in0.0 mm 0.00 in0.0 mm
12:30 AM 38.1°F3.4°C 31.2°F-0.4°C 76% Calm Calm -- 30.03 in1016.9 mb - 0.00 in0.0 mm 0.00 in0.0 mm
12:40 AM 38.3°F3.5°C 32.0°F0.0°C 78% Calm Calm -- 30.03 in1016.9 mb - 0.00 in0.0 mm 0.00 in0.0 mm
12:50 AM 38.1°F3.4°C 32.2°F0.1°C 79% Calm Calm -- 30.03 in1016.9 mb - 0.00 in0.0 mm 0.00 in0.0 mm
01:00 AM 37.9°F3.3°C 32.3°F0.2°C 80% Calm Calm -- 30.03 in1016.9 mb - 0.00 in0.0 mm 0.00 in0.0 mm
01:10 AM 37.5°F3.1°C 32.2°F0.1°C 81% Calm Calm -- 30.03 in1016.9 mb - 0.00 in0.0 mm 0.00 in0.0 mm
01:20 AM 37.0°F2.8°C 31.8°F-0.1°C 81% Calm Calm -- 30.03 in1016.9 mb - 0.00 in0.0 mm 0.00 in0.0 mm
01:30 AM 36.9°F2.7°C 31.9°F-0.1°C 82% 1.2 mph NW1.9 kmh NW 3.5 mph5.6 kmh 30.03 in1016.9 mb - 0.00 in0.0 mm 0.00 in0.0 mm
01:40 AM 36.7°F2.6°C 32.0°F0.0°C 83% Calm Calm 2.3 mph3.7 kmh 30.03 in1016.9 mb - 0.00 in0.0 mm 0.00 in0.0 mm
01:50 AM 36.3°F2.4°C 31.9°F-0.1°C 84% Calm Calm -- 30.03 in1016.9 mb - 0.00 in0.0 mm 0.00 in0.0 mm
02:00 AM 36.1°F2.3°C 32.1°F0.1°C 85% Calm Calm -- 30.03 in1016.9 mb - 0.00 in0.0 mm 0.00 in0.0 mm
02:10 AM 36.0°F2.2°C 31.9°F-0.1°C 85% Calm Calm -- 30.03 in1016.9 mb - 0.00 in0.0 mm 0.00 in0.0 mm
02:20 AM 36.0°F2.2°C 32.2°F0.1°C 86% Calm Calm -- 30.03 in1016.9 mb - 0.00 in0.0 mm 0.00 in0.0 mm
02:30 AM 36.0°F2.2°C 32.2°F0.1°C 86% Calm Calm -- 30.00 in1015.9 mb - 0.00 in0.0 mm 0.00 in0.0 mm
02:40 AM 36.0°F2.2°C 32.5°F0.3°C 87% Calm Calm -- 30.00 in1015.9 mb - 0.00 in0.0 mm 0.00 in0.0 mm
02:50 AM 35.6°F2.0°C 32.1°F0.1°C 87% Calm Calm -- 30.00 in1015.9 mb - 0.00 in0.0 mm 0.00 in0.0 mm
03:00 AM 35.0°F1.7°C 31.8°F-0.1°C 88% Calm Calm -- 30.00 in1015.9 mb - 0.00 in0.0 mm 0.00 in0.0 mm
03:10 AM 34.5°F1.4°C 31.3°F-0.4°C 88% Calm Calm -- 30.00 in1015.9 mb - 0.00 in0.0 mm 0.00 in0.0 mm
03:20 AM 34.2°F1.2°C 31.0°F-0.6°C 88% Calm Calm -- 30.00 in1015.9 mb - 0.00 in0.0 mm 0.00 in0.0 mm
03:30 AM 34.0°F1.1°C 30.9°F-0.6°C 88% Calm Calm -- 30.00 in1015.9 mb - 0.00 in0.0 mm 0.00 in0.0 mm
03:40 AM 34.2°F1.2°C 31.0°F-0.6°C 88% Calm Calm -- 30.00 in1015.9 mb - 0.00 in0.0 mm 0.00 in0.0 mm
03:50 AM 34.2°F1.2°C 31.3°F-0.4°C 89% Calm Calm -- 30.00 in1015.9 mb - 0.00 in0.0 mm 0.00 in0.0 mm
04:00 AM 34.0°F1.1°C 31.1°F-0.5°C 89% Calm Calm -- 30.00 in1015.9 mb - 0.00 in0.0 mm 0.00 in0.0 mm
04:10 AM 33.8°F1.0°C 30.9°F-0.6°C 89% Calm Calm -- 30.00 in1015.9 mb - 0.00 in0.0 mm 0.00 in0.0 mm
04:20 AM 33.6°F0.9°C 31.0°F-0.6°C 90% Calm Calm -- 30.00 in1015.9 mb - 0.00 in0.0 mm 0.00 in0.0 mm
04:30 AM 33.3°F0.7°C 30.6°F-0.8°C 90% Calm Calm -- 30.00 in1015.9 mb - 0.00 in0.0 mm 0.00 in0.0 mm
04:40 AM 33.3°F0.7°C 30.9°F-0.6°C 91% Calm Calm -- 30.00 in1015.9 mb - 0.00 in0.0 mm 0.00 in0.0 mm
04:50 AM 33.4°F0.8°C 31.1°F-0.5°C 91% Calm Calm -- 30.00 in1015.9 mb - 0.00 in0.0 mm 0.00 in0.0 mm
05:00 AM 33.3°F0.7°C 30.9°F-0.6°C 91% Calm Calm -- 30.00 in1015.9 mb - 0.00 in0.0 mm 0.00 in0.0 mm
05:10 AM 33.3°F0.7°C 31.2°F-0.4°C 92% Calm Calm -- 30.00 in1015.9 mb - 0.00 in0.0 mm 0.00 in0.0 mm
05:20 AM 33.4°F0.8°C 31.4°F-0.3°C 92% Calm Calm -- 30.00 in1015.9 mb - 0.00 in0.0 mm 0.00 in0.0 mm
05:30 AM 33.6°F0.9°C 31.5°F-0.3°C 92% Calm Calm -- 30.00 in1015.9 mb - 0.00 in0.0 mm 0.00 in0.0 mm
05:40 AM 33.8°F1.0°C 31.7°F-0.2°C 92% Calm Calm -- 30.00 in1015.9 mb - 0.00 in0.0 mm 0.00 in0.0 mm
05:50 AM 34.0°F1.1°C 32.2°F0.1°C 93% Calm Calm -- 30.00 in1015.9 mb - 0.00 in0.0 mm 0.00 in0.0 mm
06:00 AM 34.5°F1.4°C 33.0°F0.6°C 94% Calm Calm -- 30.00 in1015.9 mb - 0.00 in0.0 mm 0.00 in0.0 mm
06:10 AM 35.3°F1.8°C 34.0°F1.1°C 95% Calm Calm -- 30.00 in1015.9 mb - 0.00 in0.0 mm 0.00 in0.0 mm
06:20 AM 35.6°F2.0°C 34.3°F1.3°C 95% 2.3 mph NW3.7 kmh NW 2.3 mph3.7 kmh 30.00 in1015.9 mb - 0.00 in0.0 mm 0.00 in0.0 mm
06:30 AM 35.9°F2.2°C 34.6°F1.4°C 95% Calm Calm 3.5 mph5.6 kmh 30.00 in1015.9 mb - 0.00 in0.0 mm 0.00 in0.0 mm
06:40 AM 36.7°F2.6°C 35.1°F1.7°C 94% 2.3 mph NW3.7 kmh NW 2.3 mph3.7 kmh 30.00 in1015.9 mb - 0.00 in0.0 mm 0.00 in0.0 mm
06:50 AM 36.8°F2.7°C 34.7°F1.5°C 92% Calm Calm -- 30.00 in1015.9 mb - 0.00 in0.0 mm 0.00 in0.0 mm
07:00 AM 37.0°F2.8°C 34.9°F1.6°C 92% Calm Calm -- 30.00 in1015.9 mb - 0.00 in0.0 mm 0.00 in0.0 mm
07:10 AM 37.2°F2.9°C 34.8°F1.6°C 91% Calm Calm -- 30.00 in1015.9 mb - 0.00 in0.0 mm 0.00 in0.0 mm
07:20 AM 38.1°F3.4°C 35.4°F1.9°C 90% Calm Calm -- 30.00 in1015.9 mb - 0.00 in0.0 mm 0.00 in0.0 mm
07:30 AM 41.1°F5.1°C 37.8°F3.2°C 88% Calm Calm -- 29.97 in1014.9 mb - 0.00 in0.0 mm 0.00 in0.0 mm
07:40 AM 42.2°F5.7°C 37.7°F3.2°C 84% Calm Calm -- 29.97 in1014.9 mb - 0.00 in0.0 mm 0.00 in0.0 mm
07:50 AM 42.8°F6.0°C 37.4°F3.0°C 81% 2.3 mph SE3.7 kmh SE 3.5 mph5.6 kmh 29.97 in1014.9 mb - 0.00 in0.0 mm 0.00 in0.0 mm
08:00 AM 43.2°F6.2°C 37.1°F2.8°C 79% Calm Calm -- 29.97 in1014.9 mb - 0.00 in0.0 mm 0.00 in0.0 mm
08:20 AM 44.0°F6.7°C 38.2°F3.4°C 80% Calm Calm -- 29.97 in1014.9 mb - 0.00 in0.0 mm 0.00 in0.0 mm
08:30 AM 45.6°F7.6°C 38.4°F3.6°C 76% Calm Calm -- 29.97 in1014.9 mb - 0.00 in0.0 mm 0.00 in0.0 mm
08:40 AM 47.4°F8.6°C 39.2°F4.0°C 73% Calm Calm -- 29.97 in1014.9 mb - 0.00 in0.0 mm 0.00 in0.0 mm
08:50 AM 49.4°F9.7°C 40.0°F4.4°C 70% Calm Calm -- 29.97 in1014.9 mb - 0.00 in0.0 mm 0.00 in0.0 mm
09:00 AM 51.8°F11.0°C 41.6°F5.3°C 68% Calm Calm 3.5 mph5.6 kmh 29.97 in1014.9 mb - 0.00 in0.0 mm 0.00 in0.0 mm
09:10 AM 53.8°F12.1°C 41.1°F5.1°C 62% 3.5 mph SSE5.6 kmh SSE 5.8 mph9.3 kmh 29.97 in1014.9 mb - 0.00 in0.0 mm 0.00 in0.0 mm
09:20 AM 56.1°F13.4°C 41.5°F5.3°C 58% 3.5 mph S5.6 kmh S 5.8 mph9.3 kmh 29.94 in1013.9 mb - 0.00 in0.0 mm 0.00 in0.0 mm
09:30 AM 55.9°F13.3°C 39.9°F4.4°C 55% 4.6 mph SSE7.4 kmh SSE 5.8 mph9.3 kmh 29.94 in1013.9 mb - 0.00 in0.0 mm 0.00 in0.0 mm
09:40 AM 55.9°F13.3°C 39.0°F3.9°C 53% 4.6 mph S7.4 kmh S 8.1 mph13.0 kmh 29.94 in1013.9 mb - 0.00 in0.0 mm 0.00 in0.0 mm
09:50 AM 56.5°F13.6°C 39.1°F3.9°C 52% 4.6 mph SSE7.4 kmh SSE 5.8 mph9.3 kmh 29.94 in1013.9 mb - 0.00 in0.0 mm 0.00 in0.0 mm
10:00 AM 56.6°F13.7°C 38.7°F3.7°C 51% 3.5 mph SE5.6 kmh SE 5.8 mph9.3 kmh 29.94 in1013.9 mb - 0.00 in0.0 mm 0.00 in0.0 mm
10:10 AM 57.9°F14.4°C 39.4°F4.1°C 50% 4.6 mph SE7.4 kmh SE 8.1 mph13.0 kmh 29.94 in1013.9 mb - 0.00 in0.0 mm 0.00 in0.0 mm
10:20 AM 58.3°F14.6°C 39.2°F4.0°C 49% 5.8 mph ESE9.3 kmh ESE 6.9 mph11.1 kmh 29.94 in1013.9 mb - 0.00 in0.0 mm 0.00 in0.0 mm
10:30 AM 59.1°F15.1°C 39.4°F4.1°C 48% 4.6 mph SE7.4 kmh SE 5.8 mph9.3 kmh 29.94 in1013.9 mb - 0.00 in0.0 mm 0.00 in0.0 mm
10:40 AM 59.2°F15.1°C 39.5°F4.2°C 48% 1.2 mph SE1.9 kmh SE 2.3 mph3.7 kmh 29.94 in1013.9 mb - 0.00 in0.0 mm 0.00 in0.0 mm
10:50 AM 59.4°F15.2°C 39.7°F4.3°C 48% 4.6 mph SE7.4 kmh SE 6.9 mph11.1 kmh 29.94 in1013.9 mb - 0.00 in0.0 mm 0.00 in0.0 mm
11:00 AM 59.7°F15.4°C 39.5°F4.2°C 47% 3.5 mph ESE5.6 kmh ESE 3.5 mph5.6 kmh 29.94 in1013.9 mb - 0.00 in0.0 mm 0.00 in0.0 mm
11:10 AM 59.6°F15.3°C 39.3°F4.1°C 47% 5.8 mph SE9.3 kmh SE 10.4 mph16.7 kmh 29.94 in1013.9 mb - 0.00 in0.0 mm 0.00 in0.0 mm
11:20 AM 60.2°F15.7°C 39.3°F4.1°C 46% 4.6 mph SE7.4 kmh SE 5.8 mph9.3 kmh 29.91 in1012.9 mb - 0.00 in0.0 mm 0.00 in0.0 mm
11:30 AM 60.2°F15.7°C 39.3°F4.1°C 46% 6.9 mph SE11.1 kmh SE 11.5 mph18.5 kmh 29.91 in1012.9 mb - 0.00 in0.0 mm 0.00 in0.0 mm
11:40 AM 60.7°F15.9°C 39.2°F4.0°C 45% 3.5 mph SE5.6 kmh SE 5.8 mph9.3 kmh 29.91 in1012.9 mb - 0.00 in0.0 mm 0.00 in0.0 mm
11:50 AM 60.6°F15.9°C 39.2°F4.0°C 45% 4.6 mph SE7.4 kmh SE 4.6 mph7.4 kmh 29.91 in1012.9 mb - 0.00 in0.0 mm 0.00 in0.0 mm
12:00 PM 61.2°F16.2°C 39.7°F4.3°C 45% 3.5 mph SE5.6 kmh SE 5.8 mph9.3 kmh 29.91 in1012.9 mb - 0.00 in0.0 mm 0.00 in0.0 mm
12:10 PM 63.3°F17.4°C 41.6°F5.3°C 45% 3.5 mph SSE5.6 kmh SSE 5.8 mph9.3 kmh 29.91 in1012.9 mb - 0.00 in0.0 mm 0.00 in0.0 mm
12:20 PM 62.6°F17.0°C 40.4°F4.7°C 44% 4.6 mph SE7.4 kmh SE 5.8 mph9.3 kmh 29.91 in1012.9 mb - 0.00 in0.0 mm 0.00 in0.0 mm
12:30 PM 62.2°F16.8°C 40.5°F4.7°C 45% 2.3 mph SSE3.7 kmh SSE 3.5 mph5.6 kmh 29.91 in1012.9 mb - 0.00 in0.0 mm 0.00 in0.0 mm
12:40 PM 61.6°F16.4°C 39.4°F4.1°C 44% 2.3 mph SE3.7 kmh SE 3.5 mph5.6 kmh 29.91 in1012.9 mb - 0.00 in0.0 mm 0.00 in0.0 mm
12:50 PM 62.0°F16.7°C 39.8°F4.3°C 44% 4.6 mph SE7.4 kmh SE 6.9 mph11.1 kmh 29.91 in1012.9 mb - 0.00 in0.0 mm 0.00 in0.0 mm
01:00 PM 62.6°F17.0°C 40.4°F4.7°C 44% 3.5 mph E5.6 kmh E 5.8 mph9.3 kmh 29.91 in1012.9 mb - 0.00 in0.0 mm 0.00 in0.0 mm
01:10 PM 63.5°F17.5°C 41.2°F5.1°C 44% 4.6 mph SSE7.4 kmh SSE 5.8 mph9.3 kmh 29.91 in1012.9 mb - 0.00 in0.0 mm 0.00 in0.0 mm
01:20 PM 62.8°F17.1°C 39.9°F4.4°C 43% 3.5 mph SE5.6 kmh SE 3.5 mph5.6 kmh 29.91 in1012.9 mb - 0.00 in0.0 mm 0.00 in0.0 mm
01:30 PM 63.3°F17.4°C 41.0°F5.0°C 44% 4.6 mph SSE7.4 kmh SSE 5.8 mph9.3 kmh 29.91 in1012.9 mb - 0.00 in0.0 mm 0.00 in0.0 mm
01:40 PM 62.2°F16.8°C 40.0°F4.4°C 44% 4.6 mph SSE7.4 kmh SSE 5.8 mph9.3 kmh 29.91 in1012.9 mb - 0.00 in0.0 mm 0.00 in0.0 mm
01:50 PM 61.9°F16.6°C 39.7°F4.3°C 44% 3.5 mph SE5.6 kmh SE 5.8 mph9.3 kmh 29.91 in1012.9 mb - 0.00 in0.0 mm 0.00 in0.0 mm
02:00 PM 61.7°F16.5°C 39.5°F4.2°C 44% 3.5 mph SSE5.6 kmh SSE 5.8 mph9.3 kmh 29.91 in1012.9 mb - 0.00 in0.0 mm 0.00 in0.0 mm
02:10 PM 61.4°F16.3°C 39.3°F4.1°C 44% 3.5 mph SE5.6 kmh SE 5.8 mph9.3 kmh 29.91 in1012.9 mb - 0.00 in0.0 mm 0.00 in0.0 mm
02:20 PM 61.2°F16.2°C 39.7°F4.3°C 45% 4.6 mph S7.4 kmh S 5.8 mph9.3 kmh 29.88 in1011.9 mb - 0.00 in0.0 mm 0.00 in0.0 mm
02:30 PM 61.3°F16.3°C 40.3°F4.6°C 46% 4.6 mph SE7.4 kmh SE 5.8 mph9.3 kmh 29.88 in1011.9 mb - 0.00 in0.0 mm 0.00 in0.0 mm
02:40 PM 60.8°F16.0°C 40.5°F4.7°C 47% 5.8 mph S9.3 kmh S 8.1 mph13.0 kmh 29.88 in1011.9 mb - 0.00 in0.0 mm 0.00 in0.0 mm
02:50 PM 59.6°F15.3°C 40.4°F4.7°C 49% 5.8 mph S9.3 kmh S 5.8 mph9.3 kmh 29.88 in1011.9 mb - 0.00 in0.0 mm 0.00 in0.0 mm
03:00 PM 59.6°F15.3°C 41.5°F5.3°C 51% 4.6 mph S7.4 kmh S 5.8 mph9.3 kmh 29.88 in1011.9 mb - 0.00 in0.0 mm 0.00 in0.0 mm
03:10 PM 59.9°F15.5°C 41.7°F5.4°C 51% 4.6 mph SSE7.4 kmh SSE 5.8 mph9.3 kmh 29.88 in1011.9 mb - 0.00 in0.0 mm 0.00 in0.0 mm
03:20 PM 59.4°F15.2°C 40.8°F4.9°C 50% 4.6 mph S7.4 kmh S 5.8 mph9.3 kmh 29.88 in1011.9 mb - 0.00 in0.0 mm 0.00 in0.0 mm
03:30 PM 58.9°F14.9°C 40.3°F4.6°C 50% 3.5 mph WNW5.6 kmh WNW 5.8 mph9.3 kmh 29.88 in1011.9 mb - 0.00 in0.0 mm 0.00 in0.0 mm
03:40 PM 58.5°F14.7°C 41.9°F5.5°C 54% 5.8 mph WNW9.3 kmh WNW 5.8 mph9.3 kmh 29.88 in1011.9 mb - 0.00 in0.0 mm 0.00 in0.0 mm
03:50 PM 57.5°F14.2°C 43.3°F6.3°C 59% 3.5 mph NW5.6 kmh NW 5.8 mph9.3 kmh 29.88 in1011.9 mb - 0.00 in0.0 mm 0.00 in0.0 mm
04:00 PM 56.8°F13.8°C 45.5°F7.5°C 66% 5.8 mph N9.3 kmh N 8.1 mph13.0 kmh 29.88 in1011.9 mb - 0.00 in0.0 mm 0.00 in0.0 mm
04:10 PM 56.3°F13.5°C 47.0°F8.3°C 71% 2.3 mph N3.7 kmh N 5.8 mph9.3 kmh 29.88 in1011.9 mb - 0.00 in0.0 mm 0.00 in0.0 mm
04:20 PM 55.8°F13.2°C 48.3°F9.1°C 76% 2.3 mph N3.7 kmh N 3.5 mph5.6 kmh 29.88 in1011.9 mb - 0.00 in0.0 mm 0.00 in0.0 mm
04:30 PM 54.8°F12.7°C 48.1°F8.9°C 78% 1.2 mph NNE1.9 kmh NNE 3.5 mph5.6 kmh 29.88 in1011.9 mb - 0.00 in0.0 mm 0.00 in0.0 mm
04:40 PM 54.3°F12.4°C 48.3°F9.1°C 80% 2.3 mph NNE3.7 kmh NNE 3.5 mph5.6 kmh 29.88 in1011.9 mb - 0.00 in0.0 mm 0.00 in0.0 mm
04:50 PM 54.0°F12.2°C 48.3°F9.1°C 81% Calm Calm 3.5 mph5.6 kmh 29.88 in1011.9 mb - 0.00 in0.0 mm 0.00 in0.0 mm
05:00 PM 53.7°F12.1°C 48.0°F8.9°C 81% Calm Calm 3.5 mph5.6 kmh 29.86 in1011.2 mb - 0.00 in0.0 mm 0.00 in0.0 mm
05:10 PM 53.2°F11.8°C 47.9°F8.8°C 82% Calm Calm 3.5 mph5.6 kmh 29.86 in1011.2 mb - 0.00 in0.0 mm 0.00 in0.0 mm
05:20 PM 53.1°F11.7°C 48.0°F8.9°C 83% Calm Calm -- 29.86 in1011.2 mb - 0.00 in0.0 mm 0.00 in0.0 mm
05:30 PM 53.2°F11.8°C 48.5°F9.2°C 84% Calm Calm -- 29.86 in1011.2 mb - 0.00 in0.0 mm 0.00 in0.0 mm
05:40 PM 53.1°F11.7°C 48.7°F9.3°C 85% Calm Calm -- 29.86 in1011.2 mb - 0.00 in0.0 mm 0.00 in0.0 mm
05:50 PM 52.8°F11.6°C 48.4°F9.1°C 85% Calm Calm -- 29.86 in1011.2 mb - 0.00 in0.0 mm 0.00 in0.0 mm
06:00 PM 52.7°F11.5°C 48.9°F9.4°C 87% Calm Calm 3.5 mph5.6 kmh 29.86 in1011.2 mb - 0.00 in0.0 mm 0.00 in0.0 mm
06:10 PM 52.3°F11.3°C 48.9°F9.4°C 88% 3.5 mph SE5.6 kmh SE 3.5 mph5.6 kmh 29.86 in1011.2 mb - 0.00 in0.0 mm 0.00 in0.0 mm
06:20 PM 52.2°F11.2°C 49.0°F9.4°C 89% Calm Calm 3.5 mph5.6 kmh 29.86 in1011.2 mb - 0.00 in0.0 mm 0.00 in0.0 mm
06:30 PM 52.0°F11.1°C 49.4°F9.7°C 91% Calm Calm -- 29.86 in1011.2 mb - 0.00 in0.0 mm 0.00 in0.0 mm
06:40 PM 51.9°F11.1°C 49.6°F9.8°C 92% Calm Calm -- 29.86 in1011.2 mb - 0.00 in0.0 mm 0.00 in0.0 mm
06:50 PM 51.8°F11.0°C 49.8°F9.9°C 93% Calm Calm -- 29.86 in1011.2 mb - 0.00 in0.0 mm 0.00 in0.0 mm
07:00 PM 51.4°F10.8°C 49.8°F9.9°C 94% Calm Calm -- 29.86 in1011.2 mb - 0.00 in0.0 mm 0.00 in0.0 mm
07:10 PM 51.3°F10.7°C 49.9°F9.9°C 95% Calm Calm 2.3 mph3.7 kmh 29.86 in1011.2 mb - 0.00 in0.0 mm 0.00 in0.0 mm
07:20 PM 51.3°F10.7°C 49.9°F9.9°C 95% Calm Calm -- 29.82 in1009.8 mb - 0.00 in0.0 mm 0.00 in0.0 mm
07:30 PM 51.1°F10.6°C 50.0°F10.0°C 96% 3.5 mph WSW5.6 kmh WSW 3.5 mph5.6 kmh 29.86 in1011.2 mb - 0.00 in0.0 mm 0.00 in0.0 mm
07:40 PM 51.1°F10.6°C 50.0°F10.0°C 96% 3.5 mph WSW5.6 kmh WSW 3.5 mph5.6 kmh 29.86 in1011.2 mb - 0.00 in0.0 mm 0.00 in0.0 mm
07:50 PM 50.9°F10.5°C 50.1°F10.1°C 97% Calm Calm 2.3 mph3.7 kmh 29.86 in1011.2 mb - 0.00 in0.0 mm 0.00 in0.0 mm
08:00 PM 50.7°F10.4°C 49.9°F9.9°C 97% Calm Calm -- 29.86 in1011.2 mb - 0.00 in0.0 mm 0.00 in0.0 mm
08:10 PM 50.5°F10.3°C 49.7°F9.8°C 97% Calm Calm -- 29.86 in1011.2 mb - 0.00 in0.0 mm 0.00 in0.0 mm
08:20 PM 50.4°F10.2°C 49.5°F9.7°C 97% Calm Calm -- 29.82 in1009.8 mb - 0.00 in0.0 mm 0.00 in0.0 mm
08:30 PM 50.2°F10.1°C 49.6°F9.8°C 98% Calm Calm -- 29.82 in1009.8 mb - 0.00 in0.0 mm 0.00 in0.0 mm
08:40 PM 50.2°F10.1°C 49.6°F9.8°C 98% Calm Calm -- 29.82 in1009.8 mb - 0.00 in0.0 mm 0.00 in0.0 mm
08:50 PM 50.2°F10.1°C 49.6°F9.8°C 98% Calm Calm -- 29.82 in1009.8 mb - 0.00 in0.0 mm 0.00 in0.0 mm
09:00 PM 50.2°F10.1°C 49.6°F9.8°C 98% Calm Calm 3.5 mph5.6 kmh 29.82 in1009.8 mb - 0.00 in0.0 mm 0.00 in0.0 mm
09:10 PM 50.0°F10.0°C 49.5°F9.7°C 98% Calm Calm -- 29.82 in1009.8 mb - 0.00 in0.0 mm 0.00 in0.0 mm
09:20 PM 50.0°F10.0°C 49.5°F9.7°C 98% 2.3 mph S3.7 kmh S 2.3 mph3.7 kmh 29.82 in1009.8 mb - 0.00 in0.0 mm 0.00 in0.0 mm
09:30 PM 49.8°F9.9°C 49.3°F9.6°C 98% 2.3 mph SSE3.7 kmh SSE 2.3 mph3.7 kmh 29.82 in1009.8 mb - 0.00 in0.0 mm 0.00 in0.0 mm
09:40 PM 49.8°F9.9°C 49.3°F9.6°C 98% Calm Calm 2.3 mph3.7 kmh 29.82 in1009.8 mb - 0.00 in0.0 mm 0.00 in0.0 mm
09:50 PM 49.6°F9.8°C 49.1°F9.5°C 98% Calm Calm -- 29.82 in1009.8 mb - 0.00 in0.0 mm 0.00 in0.0 mm
10:00 PM 49.6°F9.8°C 49.1°F9.5°C 98% Calm Calm -- 29.82 in1009.8 mb - 0.00 in0.0 mm 0.00 in0.0 mm
10:10 PM 49.6°F9.8°C 49.1°F9.5°C 98% Calm Calm -- 29.82 in1009.8 mb - 0.00 in0.0 mm 0.00 in0.0 mm
10:20 PM 49.6°F9.8°C 49.1°F9.5°C 98% Calm Calm -- 29.82 in1009.8 mb - 0.00 in0.0 mm 0.00 in0.0 mm
10:30 PM 49.6°F9.8°C 49.1°F9.5°C 98% Calm Calm -- 29.82 in1009.8 mb - 0.00 in0.0 mm 0.00 in0.0 mm
10:40 PM 49.8°F9.9°C 49.3°F9.6°C 98% Calm Calm -- 29.82 in1009.8 mb - 0.00 in0.0 mm 0.00 in0.0 mm
10:50 PM 49.6°F9.8°C 49.1°F9.5°C 98% Calm Calm -- 29.82 in1009.8 mb - 0.00 in0.0 mm 0.00 in0.0 mm
11:00 PM 49.5°F9.7°C 49.0°F9.4°C 98% Calm Calm -- 29.82 in1009.8 mb - 0.00 in0.0 mm 0.00 in0.0 mm
11:10 PM 49.6°F9.8°C 49.1°F9.5°C 98% Calm Calm -- 29.82 in1009.8 mb - 0.00 in0.0 mm 0.00 in0.0 mm
11:20 PM 49.6°F9.8°C 49.1°F9.5°C 98% 1.2 mph W1.9 kmh W 2.3 mph3.7 kmh 29.86 in1011.2 mb - 0.00 in0.0 mm 0.00 in0.0 mm
11:30 PM 49.6°F9.8°C 49.1°F9.5°C 98% Calm Calm -- 29.86 in1011.2 mb - 0.00 in0.0 mm 0.00 in0.0 mm
11:40 PM 49.6°F9.8°C 49.1°F9.5°C 98% Calm Calm -- 29.86 in1011.2 mb - 0.05 in1.3 mm 0.05 in1.3 mm
11:50 PM 49.5°F9.7°C 48.9°F9.4°C 98% 2.3 mph SE3.7 kmh SE 3.5 mph5.6 kmh 29.82 in1009.8 mb - 0.05 in1.3 mm 0.05 in1.3 mm